<?xml version="1.0" encoding="UTF-8"?>
<gpx version="1.0" creator="Trackator" xmlns:xsi="http://www.w3.org/2001/XMLSchema-instance" xmlns="http://www.topografix.com/GPX/1/0" xmlns:topografix="http://www.topografix.com/GPX/Private/TopoGrafix/0/1" xsi:schemaLocation="http://www.topografix.com/GPX/1/0 http://www.topografix.com/GPX/1/0/gpx.xsd http://www.topografix.com/GPX/Private/TopoGrafix/0/1 http://www.topografix.com/GPX/Private/TopoGrafix/0/1/topografix.xsd">
<metadata>
<link href="http://www.trackalia.com/trackatorweb.php">
<text>Trackator</text>
</link>
</metadata>
<time>2017-08-04T20:47:47Z</time>
<trk>
<name>Track: </name>
<desc>Cycling</desc>
<trkseg>
<trkpt lat="53.3476667" lon="18.4359439">
<ele>-174</ele>
<time>2017-08-04T20:47:47Z</time>
</trkpt>
<trkpt lat="53.3480907" lon="18.4359249">
<ele>-13</ele>
<time>2017-08-04T20:47:53Z</time>
</trkpt>
<trkpt lat="53.3479272" lon="18.4358798">
<ele>-47</ele>
<time>2017-08-04T20:47:55Z</time>
</trkpt>
<trkpt lat="53.3479072" lon="18.4357824">
<ele>-6</ele>
<time>2017-08-04T20:47:58Z</time>
</trkpt>
<trkpt lat="53.3481388" lon="18.4358756">
<ele>138</ele>
<time>2017-08-04T20:48:00Z</time>
</trkpt>
<trkpt lat="53.3473836" lon="18.4353122">
<ele>-115</ele>
<time>2017-08-04T20:48:01Z</time>
</trkpt>
<trkpt lat="53.3477140" lon="18.4355878">
<ele>108</ele>
<time>2017-08-04T20:48:08Z</time>
</trkpt>
<trkpt lat="53.3460981" lon="18.4339751">
<ele>-568</ele>
<time>2017-08-04T20:48:11Z</time>
</trkpt>
<trkpt lat="53.3457962" lon="18.4337759">
<ele>-676</ele>
<time>2017-08-04T20:48:13Z</time>
</trkpt>
<trkpt lat="53.3471673" lon="18.4349946">
<ele>-275</ele>
<time>2017-08-04T20:48:17Z</time>
</trkpt>
<trkpt lat="53.3480189" lon="18.4354999">
<ele>70</ele>
<time>2017-08-04T20:48:24Z</time>
</trkpt>
<trkpt lat="53.3478191" lon="18.4353748">
<ele>-21</ele>
<time>2017-08-04T20:48:26Z</time>
</trkpt>
<trkpt lat="53.3479783" lon="18.4353982">
<ele>7</ele>
<time>2017-08-04T20:48:27Z</time>
</trkpt>
<trkpt lat="53.3479322" lon="18.4354789">
<ele>-9</ele>
<time>2017-08-04T20:48:30Z</time>
</trkpt>
<trkpt lat="53.3481730" lon="18.4357836">
<ele>166</ele>
<time>2017-08-04T20:48:35Z</time>
</trkpt>
<trkpt lat="53.3478001" lon="18.4358136">
<ele>82</ele>
<time>2017-08-04T20:48:37Z</time>
</trkpt>
<trkpt lat="53.3480728" lon="18.4355702">
<ele>65</ele>
<time>2017-08-04T20:48:39Z</time>
</trkpt>
<trkpt lat="53.3481584" lon="18.4356206">
<ele>101</ele>
<time>2017-08-04T20:48:41Z</time>
</trkpt>
<trkpt lat="53.3484763" lon="18.4360624">
<ele>247</ele>
<time>2017-08-04T20:48:45Z</time>
</trkpt>
<trkpt lat="53.3478408" lon="18.4358799">
<ele>64</ele>
<time>2017-08-04T20:53:40Z</time>
</trkpt>
<trkpt lat="53.3478464" lon="18.4340029">
<ele>261</ele>
<time>2017-08-04T20:53:42Z</time>
</trkpt>
<trkpt lat="53.3478713" lon="18.4358635">
<ele>83</ele>
<time>2017-08-04T20:53:44Z</time>
</trkpt>
<trkpt lat="53.3478641" lon="18.4364882">
<ele>38</ele>
<time>2017-08-04T20:53:46Z</time>
</trkpt>
<trkpt lat="53.3478482" lon="18.4359247">
<ele>87</ele>
<time>2017-08-04T20:53:48Z</time>
</trkpt>
<trkpt lat="53.3481225" lon="18.4359947">
<ele>160</ele>
<time>2017-08-04T20:53:50Z</time>
</trkpt>
<trkpt lat="53.3479162" lon="18.4359107">
<ele>190</ele>
<time>2017-08-04T20:53:51Z</time>
</trkpt>
<trkpt lat="53.3483089" lon="18.4361985">
<ele>76</ele>
<time>2017-08-04T20:53:58Z</time>
</trkpt>
<trkpt lat="53.3455986" lon="18.4350610">
<ele>56</ele>
<time>2017-08-04T20:54:03Z</time>
</trkpt>
<trkpt lat="53.3461502" lon="18.4352469">
<ele>50</ele>
<time>2017-08-04T20:54:05Z</time>
</trkpt>
<trkpt lat="53.3475429" lon="18.4357833">
<ele>50</ele>
<time>2017-08-04T20:54:08Z</time>
</trkpt>
<trkpt lat="53.3493809" lon="18.4365040">
<ele>45</ele>
<time>2017-08-04T20:54:10Z</time>
</trkpt>
<trkpt lat="53.3479154" lon="18.4359424">
<ele>97</ele>
<time>2017-08-04T20:54:12Z</time>
</trkpt>
<trkpt lat="53.3478069" lon="18.4358562">
<ele>70</ele>
<time>2017-08-04T20:54:14Z</time>
</trkpt>
<trkpt lat="53.3477463" lon="18.4358773">
<ele>61</ele>
<time>2017-08-04T20:54:16Z</time>
</trkpt>
<trkpt lat="53.3477308" lon="18.4359224">
<ele>55</ele>
<time>2017-08-04T20:54:18Z</time>
</trkpt>
<trkpt lat="53.3477314" lon="18.4359522">
<ele>52</ele>
<time>2017-08-04T20:54:20Z</time>
</trkpt>
<trkpt lat="53.3477553" lon="18.4359654">
<ele>50</ele>
<time>2017-08-04T20:54:22Z</time>
</trkpt>
<trkpt lat="53.3477916" lon="18.4359708">
<ele>52</ele>
<time>2017-08-04T20:54:24Z</time>
</trkpt>
<trkpt lat="53.3478193" lon="18.4359425">
<ele>60</ele>
<time>2017-08-04T20:54:26Z</time>
</trkpt>
<trkpt lat="53.3478309" lon="18.4359336">
<ele>63</ele>
<time>2017-08-04T20:54:28Z</time>
</trkpt>
<trkpt lat="53.3478309" lon="18.4359336">
<ele>63</ele>
<time>2017-08-04T20:54:30Z</time>
</trkpt>
<trkpt lat="53.3478309" lon="18.4359336">
<ele>63</ele>
<time>2017-08-04T20:54:32Z</time>
</trkpt>
<trkpt lat="53.3478309" lon="18.4359336">
<ele>63</ele>
<time>2017-08-04T20:54:34Z</time>
</trkpt>
<trkpt lat="53.3478346" lon="18.4359297">
<ele>64</ele>
<time>2017-08-04T20:54:36Z</time>
</trkpt>
<trkpt lat="53.3478346" lon="18.4359297">
<ele>64</ele>
<time>2017-08-04T20:54:38Z</time>
</trkpt>
<trkpt lat="53.3478346" lon="18.4359297">
<ele>64</ele>
<time>2017-08-04T20:54:40Z</time>
</trkpt>
<trkpt lat="53.3478346" lon="18.4359297">
<ele>64</ele>
<time>2017-08-04T20:54:42Z</time>
</trkpt>
<trkpt lat="53.3478346" lon="18.4359297">
<ele>64</ele>
<time>2017-08-04T20:54:44Z</time>
</trkpt>
<trkpt lat="53.3478412" lon="18.4359756">
<ele>70</ele>
<time>2017-08-04T20:54:46Z</time>
</trkpt>
<trkpt lat="53.3478419" lon="18.4360068">
<ele>76</ele>
<time>2017-08-04T20:54:48Z</time>
</trkpt>
<trkpt lat="53.3478437" lon="18.4360246">
<ele>80</ele>
<time>2017-08-04T20:54:50Z</time>
</trkpt>
<trkpt lat="53.3478604" lon="18.4360382">
<ele>84</ele>
<time>2017-08-04T20:54:52Z</time>
</trkpt>
<trkpt lat="53.3478819" lon="18.4360397">
<ele>90</ele>
<time>2017-08-04T20:54:54Z</time>
</trkpt>
<trkpt lat="53.3478825" lon="18.4360142">
<ele>93</ele>
<time>2017-08-04T20:54:56Z</time>
</trkpt>
<trkpt lat="53.3478825" lon="18.4360142">
<ele>93</ele>
<time>2017-08-04T20:54:58Z</time>
</trkpt>
<trkpt lat="53.3478825" lon="18.4360142">
<ele>93</ele>
<time>2017-08-04T20:55:00Z</time>
</trkpt>
<trkpt lat="53.3478825" lon="18.4360142">
<ele>93</ele>
<time>2017-08-04T20:55:02Z</time>
</trkpt>
<trkpt lat="53.3478825" lon="18.4360142">
<ele>93</ele>
<time>2017-08-04T20:55:04Z</time>
</trkpt>
<trkpt lat="53.3478825" lon="18.4360142">
<ele>93</ele>
<time>2017-08-04T20:55:06Z</time>
</trkpt>
<trkpt lat="53.3478825" lon="18.4360142">
<ele>93</ele>
<time>2017-08-04T20:55:08Z</time>
</trkpt>
<trkpt lat="53.3478825" lon="18.4360142">
<ele>93</ele>
<time>2017-08-04T20:55:10Z</time>
</trkpt>
<trkpt lat="53.3478825" lon="18.4360142">
<ele>93</ele>
<time>2017-08-04T20:55:12Z</time>
</trkpt>
<trkpt lat="53.3478746" lon="18.4360296">
<ele>93</ele>
<time>2017-08-04T20:55:14Z</time>
</trkpt>
<trkpt lat="53.3478573" lon="18.4360638">
<ele>91</ele>
<time>2017-08-04T20:55:16Z</time>
</trkpt>
<trkpt lat="53.3478398" lon="18.4360944">
<ele>89</ele>
<time>2017-08-04T20:55:18Z</time>
</trkpt>
<trkpt lat="53.3478288" lon="18.4361438">
<ele>88</ele>
<time>2017-08-04T20:55:20Z</time>
</trkpt>
<trkpt lat="53.3478206" lon="18.4361765">
<ele>88</ele>
<time>2017-08-04T20:55:24Z</time>
</trkpt>
<trkpt lat="53.3477886" lon="18.4361911">
<ele>87</ele>
<time>2017-08-04T20:55:26Z</time>
</trkpt>
<trkpt lat="53.3477775" lon="18.4361356">
<ele>86</ele>
<time>2017-08-04T20:55:28Z</time>
</trkpt>
<trkpt lat="53.3477777" lon="18.4360837">
<ele>85</ele>
<time>2017-08-04T20:55:30Z</time>
</trkpt>
<trkpt lat="53.3477877" lon="18.4360148">
<ele>85</ele>
<time>2017-08-04T20:55:32Z</time>
</trkpt>
<trkpt lat="53.3478031" lon="18.4359432">
<ele>85</ele>
<time>2017-08-04T20:55:34Z</time>
</trkpt>
<trkpt lat="53.3478235" lon="18.4358814">
<ele>84</ele>
<time>2017-08-04T20:55:36Z</time>
</trkpt>
<trkpt lat="53.3478394" lon="18.4358294">
<ele>84</ele>
<time>2017-08-04T20:55:38Z</time>
</trkpt>
<trkpt lat="53.3478580" lon="18.4358001">
<ele>84</ele>
<time>2017-08-04T20:55:40Z</time>
</trkpt>
<trkpt lat="53.3478624" lon="18.4358085">
<ele>85</ele>
<time>2017-08-04T20:55:42Z</time>
</trkpt>
<trkpt lat="53.3478624" lon="18.4358085">
<ele>85</ele>
<time>2017-08-04T20:55:44Z</time>
</trkpt>
<trkpt lat="53.3478624" lon="18.4358085">
<ele>85</ele>
<time>2017-08-04T20:55:46Z</time>
</trkpt>
<trkpt lat="53.3478624" lon="18.4358085">
<ele>85</ele>
<time>2017-08-04T20:55:48Z</time>
</trkpt>
<trkpt lat="53.3478624" lon="18.4358085">
<ele>85</ele>
<time>2017-08-04T20:55:50Z</time>
</trkpt>
<trkpt lat="53.3478624" lon="18.4358085">
<ele>85</ele>
<time>2017-08-04T20:55:52Z</time>
</trkpt>
<trkpt lat="53.3478624" lon="18.4358085">
<ele>85</ele>
<time>2017-08-04T20:55:54Z</time>
</trkpt>
<trkpt lat="53.3478624" lon="18.4358085">
<ele>85</ele>
<time>2017-08-04T20:55:56Z</time>
</trkpt>
<trkpt lat="53.3478624" lon="18.4358085">
<ele>85</ele>
<time>2017-08-04T20:55:58Z</time>
</trkpt>
<trkpt lat="53.3478624" lon="18.4358085">
<ele>85</ele>
<time>2017-08-04T20:56:00Z</time>
</trkpt>
<trkpt lat="53.3478639" lon="18.4358353">
<ele>85</ele>
<time>2017-08-04T20:56:02Z</time>
</trkpt>
<trkpt lat="53.3478633" lon="18.4358727">
<ele>84</ele>
<time>2017-08-04T20:56:04Z</time>
</trkpt>
<trkpt lat="53.3478680" lon="18.4359213">
<ele>83</ele>
<time>2017-08-04T20:56:06Z</time>
</trkpt>
<trkpt lat="53.3478602" lon="18.4359490">
<ele>83</ele>
<time>2017-08-04T20:56:08Z</time>
</trkpt>
<trkpt lat="53.3478541" lon="18.4359726">
<ele>82</ele>
<time>2017-08-04T20:56:10Z</time>
</trkpt>
<trkpt lat="53.3478441" lon="18.4360015">
<ele>82</ele>
<time>2017-08-04T20:56:12Z</time>
</trkpt>
<trkpt lat="53.3478377" lon="18.4360120">
<ele>82</ele>
<time>2017-08-04T20:56:14Z</time>
</trkpt>
<trkpt lat="53.3478275" lon="18.4359854">
<ele>82</ele>
<time>2017-08-04T20:56:16Z</time>
</trkpt>
<trkpt lat="53.3478128" lon="18.4359661">
<ele>83</ele>
<time>2017-08-04T20:56:18Z</time>
</trkpt>
<trkpt lat="53.3478132" lon="18.4359358">
<ele>83</ele>
<time>2017-08-04T20:56:20Z</time>
</trkpt>
<trkpt lat="53.3478174" lon="18.4359213">
<ele>84</ele>
<time>2017-08-04T20:56:22Z</time>
</trkpt>
<trkpt lat="53.3478174" lon="18.4359213">
<ele>84</ele>
<time>2017-08-04T20:56:24Z</time>
</trkpt>
<trkpt lat="53.3478174" lon="18.4359213">
<ele>84</ele>
<time>2017-08-04T20:56:26Z</time>
</trkpt>
<trkpt lat="53.3478174" lon="18.4359213">
<ele>84</ele>
<time>2017-08-04T20:56:28Z</time>
</trkpt>
<trkpt lat="53.3478174" lon="18.4359213">
<ele>84</ele>
<time>2017-08-04T20:56:30Z</time>
</trkpt>
<trkpt lat="53.3478174" lon="18.4359213">
<ele>84</ele>
<time>2017-08-04T20:56:32Z</time>
</trkpt>
<trkpt lat="53.3478174" lon="18.4359213">
<ele>84</ele>
<time>2017-08-04T20:56:34Z</time>
</trkpt>
<trkpt lat="53.3478174" lon="18.4359213">
<ele>84</ele>
<time>2017-08-04T20:56:36Z</time>
</trkpt>
<trkpt lat="53.3477998" lon="18.4354774">
<ele>60</ele>
<time>2017-08-04T20:56:40Z</time>
</trkpt>
<trkpt lat="53.3477984" lon="18.4358405">
<ele>68</ele>
<time>2017-08-04T20:56:42Z</time>
</trkpt>
<trkpt lat="53.3477950" lon="18.4358973">
<ele>79</ele>
<time>2017-08-04T20:56:44Z</time>
</trkpt>
<trkpt lat="53.3477994" lon="18.4359434">
<ele>84</ele>
<time>2017-08-04T20:56:46Z</time>
</trkpt>
<trkpt lat="53.3479742" lon="18.4356905">
<ele>81</ele>
<time>2017-08-04T20:56:54Z</time>
</trkpt>
<trkpt lat="53.3479702" lon="18.4356710">
<ele>81</ele>
<time>2017-08-04T20:56:56Z</time>
</trkpt>
<trkpt lat="53.3479771" lon="18.4356923">
<ele>83</ele>
<time>2017-08-04T20:56:58Z</time>
</trkpt>
<trkpt lat="53.3479810" lon="18.4357061">
<ele>85</ele>
<time>2017-08-04T20:57:00Z</time>
</trkpt>
<trkpt lat="53.3479830" lon="18.4357237">
<ele>88</ele>
<time>2017-08-04T20:57:02Z</time>
</trkpt>
<trkpt lat="53.3479819" lon="18.4357417">
<ele>90</ele>
<time>2017-08-04T20:57:04Z</time>
</trkpt>
<trkpt lat="53.3479819" lon="18.4357417">
<ele>96</ele>
<time>2017-08-04T20:57:06Z</time>
</trkpt>
<trkpt lat="53.3479718" lon="18.4358638">
<ele>100</ele>
<time>2017-08-04T20:57:08Z</time>
</trkpt>
<trkpt lat="53.3479694" lon="18.4359108">
<ele>104</ele>
<time>2017-08-04T20:57:10Z</time>
</trkpt>
<trkpt lat="53.3479670" lon="18.4359244">
<ele>106</ele>
<time>2017-08-04T20:57:12Z</time>
</trkpt>
<trkpt lat="53.3479561" lon="18.4359474">
<ele>102</ele>
<time>2017-08-04T20:57:14Z</time>
</trkpt>
<trkpt lat="53.3479481" lon="18.4359457">
<ele>91</ele>
<time>2017-08-04T20:57:16Z</time>
</trkpt>
<trkpt lat="53.3479385" lon="18.4359470">
<ele>84</ele>
<time>2017-08-04T20:57:18Z</time>
</trkpt>
<trkpt lat="53.3478816" lon="18.4356407">
<ele>46</ele>
<time>2017-08-04T20:57:24Z</time>
</trkpt>
<trkpt lat="53.3478722" lon="18.4357079">
<ele>43</ele>
<time>2017-08-04T20:57:26Z</time>
</trkpt>
<trkpt lat="53.3478459" lon="18.4357794">
<ele>43</ele>
<time>2017-08-04T20:57:28Z</time>
</trkpt>
<trkpt lat="53.3478165" lon="18.4358655">
<ele>41</ele>
<time>2017-08-04T20:57:30Z</time>
</trkpt>
<trkpt lat="53.3478097" lon="18.4358981">
<ele>35</ele>
<time>2017-08-04T20:57:32Z</time>
</trkpt>
<trkpt lat="53.3478108" lon="18.4359242">
<ele>31</ele>
<time>2017-08-04T20:57:34Z</time>
</trkpt>
<trkpt lat="" lon="">
<ele></ele>
<time>2017-08-04TZ</time>
</trkpt>
</trkseg>
</trk>
<wpt lat="" lon="">
	<name></name>
	<desc></desc>
	<cmt></cmt>
	<photoid></photoid>
	<type></type>
</wpt>
</gpx>
